createdAt,value
2023-03-06T00:02:26.401Z,1.63
2023-03-06T00:05:31.011Z,1.58
2023-03-06T00:08:34.093Z,1.60
2023-03-06T00:11:37.566Z,1.50
2023-03-06T00:14:40.622Z,1.47
2023-03-06T00:17:43.698Z,1.50
2023-03-06T00:20:48.031Z,1.51
2023-03-06T00:23:53.244Z,1.48
2023-03-06T00:26:56.422Z,1.42
2023-03-06T00:30:01.294Z,1.37
2023-03-06T00:33:04.782Z,1.27
2023-03-06T00:36:10.630Z,1.21
2023-03-06T00:39:13.949Z,1.11
2023-03-06T00:42:18.678Z,1.14
2023-03-06T00:45:21.999Z,1.13
2023-03-06T00:48:27.171Z,1.10
2023-03-06T00:51:31.802Z,0.98
2023-03-06T00:54:35.084Z,0.94
2023-03-06T00:57:38.448Z,0.94
2023-03-06T01:00:41.557Z,0.89
2023-03-06T01:03:45.093Z,0.89
2023-03-06T01:06:49.811Z,0.88
2023-03-06T01:09:53.307Z,0.87
2023-03-06T01:12:58.334Z,0.85
2023-03-06T01:16:10.899Z,0.85
2023-03-06T01:19:14.821Z,0.88
2023-03-06T01:22:20.073Z,0.96
2023-03-06T01:25:24.319Z,1.00
2023-03-06T01:28:28.113Z,0.92
2023-03-06T01:31:32.143Z,0.94
2023-03-06T01:34:35.196Z,1.00
2023-03-06T01:37:40.704Z,0.95
2023-03-06T01:40:44.323Z,0.98
2023-03-06T01:43:48.226Z,0.98
2023-03-06T01:46:51.875Z,1.02
2023-03-06T01:49:56.216Z,1.05
2023-03-06T01:53:01.935Z,1.03
2023-03-06T01:56:05.589Z,0.99
2023-03-06T01:59:09.450Z,1.04
2023-03-06T02:02:14.207Z,1.02
2023-03-06T02:05:18.772Z,1.10
2023-03-06T02:08:25.204Z,1.13
2023-03-06T02:11:28.861Z,1.13
2023-03-06T02:14:33.576Z,1.11
2023-03-06T02:17:37.522Z,1.20
2023-03-06T02:20:46.402Z,1.19
2023-03-06T02:24:07.874Z,1.24
2023-03-06T02:27:15.257Z,1.27
2023-03-06T02:30:20.100Z,1.27
2023-03-06T02:33:27.608Z,1.35
2023-03-06T02:36:35.115Z,1.41
2023-03-06T02:39:43.384Z,1.42
2023-03-06T02:42:50.967Z,1.45
2023-03-06T02:45:55.826Z,1.50
2023-03-06T02:48:58.984Z,1.51
2023-03-06T02:52:02.538Z,1.52
2023-03-06T02:55:06.967Z,1.58
2023-03-06T02:58:12.624Z,1.61
2023-03-06T03:01:16.209Z,1.69
2023-03-06T03:04:20.139Z,1.71
2023-03-06T03:07:23.965Z,1.69
2023-03-06T03:10:27.637Z,1.74
2023-03-06T03:13:33.201Z,1.81
2023-03-06T03:16:39.131Z,1.79
2023-03-06T03:19:42.818Z,1.77
2023-03-06T03:22:49.807Z,1.81
2023-03-06T03:25:53.352Z,1.77
2023-03-06T03:28:58.398Z,1.84
2023-03-06T03:32:01.608Z,1.82
2023-03-06T03:35:05.896Z,1.91
2023-03-06T03:38:10.235Z,1.91
2023-03-06T03:41:13.534Z,1.95
2023-03-06T03:44:20.550Z,1.98
2023-03-06T03:47:25.044Z,2.00
2023-03-06T03:50:28.474Z,2.02
2023-03-06T03:53:32.844Z,2.02
2023-03-06T03:56:35.993Z,2.06
2023-03-06T03:59:52.340Z,2.12
2023-03-06T04:03:14.063Z,2.19
2023-03-06T04:06:20.816Z,2.19
2023-03-06T04:09:24.672Z,2.21
2023-03-06T04:12:27.892Z,2.20
2023-03-06T04:15:32.988Z,2.23
2023-03-06T04:18:38.017Z,2.21
2023-03-06T04:21:42.327Z,2.12
2023-03-06T04:24:47.750Z,2.00
2023-03-06T04:27:54.314Z,1.88
2023-03-06T04:30:59.573Z,1.81
2023-03-06T04:34:02.951Z,1.72
2023-03-06T04:37:06.547Z,1.63
2023-03-06T04:40:17.955Z,1.58
2023-03-06T04:43:21.164Z,1.53
2023-03-06T04:46:25.720Z,1.50
2023-03-06T04:49:29.300Z,1.51
2023-03-06T04:52:32.334Z,1.46
2023-03-06T04:55:35.667Z,1.41
2023-03-06T04:58:39.132Z,1.41
2023-03-06T05:01:44.257Z,1.37
2023-03-06T05:04:47.265Z,1.41
2023-03-06T05:07:51.939Z,1.40
2023-03-06T05:10:57.711Z,1.28
2023-03-06T05:14:01.227Z,1.28
2023-03-06T05:17:05.605Z,1.25
2023-03-06T05:20:12.475Z,1.21
2023-03-06T05:23:15.504Z,1.24
2023-03-06T05:26:18.805Z,1.19
2023-03-06T05:29:22.137Z,1.14
2023-03-06T05:32:26.789Z,1.12
2023-03-06T05:35:29.861Z,1.06
2023-03-06T05:38:33.507Z,1.07
2023-03-06T05:41:36.997Z,1.11
2023-03-06T05:44:42.352Z,1.12
2023-03-06T05:47:46.757Z,1.06
2023-03-06T05:50:56.724Z,1.01
2023-03-06T05:53:59.717Z,0.97
2023-03-06T05:57:04.260Z,0.96
2023-03-06T06:00:09.780Z,0.95
2023-03-06T06:03:23.349Z,0.96
2023-03-06T06:06:26.586Z,0.97
2023-03-06T06:09:30.461Z,0.93
2023-03-06T06:12:34.214Z,0.85
2023-03-06T06:15:39.309Z,0.93
2023-03-06T06:18:44.685Z,0.96
2023-03-06T06:21:49.091Z,0.95
2023-03-06T06:24:52.115Z,0.98
2023-03-06T06:27:56.397Z,0.97
2023-03-06T06:30:59.403Z,0.96
2023-03-06T06:34:04.414Z,1.00
2023-03-06T06:37:07.570Z,0.95
2023-03-06T06:40:12.732Z,0.89
2023-03-06T06:43:15.768Z,0.99
2023-03-06T06:47:05.822Z,0.96
2023-03-06T06:49:45.129Z,0.89
2023-03-06T06:52:48.314Z,0.88
2023-03-06T06:55:51.519Z,0.89
2023-03-06T06:59:01.340Z,0.92
2023-03-06T07:02:16.108Z,0.99
2023-03-06T07:05:22.029Z,0.96
2023-03-06T07:08:25.468Z,1.00
2023-03-06T07:11:28.505Z,1.07
2023-03-06T07:14:33.481Z,1.04
2023-03-06T07:17:36.630Z,0.92
2023-03-06T07:20:41.089Z,0.92
2023-03-06T07:23:44.870Z,0.90
2023-03-06T07:26:48.411Z,0.96
2023-03-06T07:29:51.496Z,0.93
2023-03-06T07:32:56.657Z,0.91
2023-03-06T07:36:01.038Z,1.01
2023-03-06T07:39:04.250Z,1.03
2023-03-06T07:42:08.026Z,0.92
2023-03-06T07:45:12.710Z,0.90
2023-03-06T07:48:15.858Z,0.92
2023-03-06T07:51:22.784Z,0.95
2023-03-06T07:54:25.856Z,0.99
2023-03-06T07:57:29.116Z,0.94
2023-03-06T08:00:32.291Z,1.05
2023-03-06T08:03:35.938Z,1.05
2023-03-06T08:06:40.408Z,1.09
2023-03-06T08:09:43.613Z,1.24
2023-03-06T08:12:46.606Z,1.37
2023-03-06T08:15:50.248Z,1.34
2023-03-06T08:18:53.632Z,1.27
2023-03-06T08:21:58.505Z,1.13
2023-03-06T08:25:01.801Z,1.05
2023-03-06T08:28:05.401Z,1.17
2023-03-06T08:31:10.951Z,1.16
2023-03-06T08:34:18.627Z,1.13
2023-03-06T08:37:23.144Z,1.25
2023-03-06T08:40:30.386Z,1.32
2023-03-06T08:43:34.804Z,1.27
2023-03-06T08:46:38.211Z,1.37
2023-03-06T08:49:41.421Z,1.21
2023-03-06T08:52:46.633Z,1.14
2023-03-06T08:55:49.642Z,1.23
2023-03-06T08:58:54.339Z,1.29
2023-03-06T09:01:57.491Z,1.36
2023-03-06T09:05:01.238Z,1.40
2023-03-06T09:08:05.574Z,1.42
2023-03-06T09:11:09.550Z,1.36
2023-03-06T09:14:12.602Z,1.37
2023-03-06T09:17:15.630Z,1.37
2023-03-06T09:20:19.584Z,1.35
2023-03-06T09:23:24.356Z,1.42
2023-03-06T09:26:39.479Z,1.35
2023-03-06T09:29:46.677Z,1.30
2023-03-06T09:32:49.723Z,1.43
2023-03-06T09:35:56.144Z,1.54
2023-03-06T09:39:00.597Z,1.58
2023-03-06T09:42:03.850Z,1.59
2023-03-06T09:45:08.222Z,1.60
2023-03-06T09:48:16.148Z,1.62
2023-03-06T09:51:26.786Z,1.58
2023-03-06T09:54:40.949Z,1.73
2023-03-06T09:57:52.413Z,1.73
2023-03-06T10:01:01.882Z,1.80
2023-03-06T10:04:17.030Z,1.77
2023-03-06T10:07:25.591Z,1.89
2023-03-06T10:10:46.031Z,1.82
2023-03-06T10:13:55.089Z,1.85
2023-03-06T10:16:59.840Z,1.83
2023-03-06T10:20:11.193Z,1.89
2023-03-06T10:23:36.383Z,1.84
2023-03-06T10:26:46.418Z,1.88
2023-03-06T10:30:03.377Z,1.77
2023-03-06T10:33:18.835Z,1.80
2023-03-06T10:36:25.245Z,1.77
2023-03-06T10:39:28.800Z,1.83
2023-03-06T10:42:33.334Z,1.82
2023-03-06T10:45:49.783Z,1.72
2023-03-06T10:49:00.175Z,1.68
2023-03-06T10:52:07.802Z,1.75
2023-03-06T10:55:26.102Z,1.80
2023-03-06T10:58:33.433Z,1.86
2023-03-06T11:01:37.003Z,1.94
2023-03-06T11:04:41.634Z,1.91
2023-03-06T11:07:58.457Z,1.92
2023-03-06T11:11:05.452Z,1.92
2023-03-06T11:14:16.895Z,1.99
2023-03-06T11:17:29.339Z,1.98
2023-03-06T11:20:51.525Z,2.01
2023-03-06T11:23:59.064Z,2.07
2023-03-06T11:27:10.232Z,2.10
2023-03-06T11:30:22.711Z,2.17
2023-03-06T11:33:32.100Z,2.00
2023-03-06T11:36:39.862Z,2.17
2023-03-06T11:39:47.983Z,2.24
2023-03-06T11:42:57.297Z,2.14
2023-03-06T11:46:11.473Z,2.13
2023-03-06T11:49:23.401Z,2.19
2023-03-06T11:52:40.672Z,2.20
2023-03-06T11:55:51.888Z,2.25
2023-03-06T11:59:08.816Z,2.37
2023-03-06T12:07:36.520Z,2.45
2023-03-06T12:10:51.717Z,2.64
2023-03-06T12:14:26.435Z,2.72
2023-03-06T12:17:47.653Z,2.71
2023-03-06T12:21:00.427Z,2.65
2023-03-06T12:24:30.466Z,2.62
2023-03-06T12:27:43.730Z,2.88
2023-03-06T12:31:32.493Z,2.90
2023-03-06T12:34:52.311Z,2.99
2023-03-06T12:38:08.168Z,3.17
2023-03-06T12:41:25.240Z,3.15
2023-03-06T12:45:12.080Z,2.90
2023-03-06T12:48:21.522Z,3.08
2023-03-06T12:51:25.167Z,3.13
2023-03-06T12:54:31.207Z,3.06
2023-03-06T12:57:35.547Z,2.95
2023-03-06T13:01:03.688Z,3.02
2023-03-06T13:04:47.565Z,2.78
2023-03-06T13:08:19.921Z,2.97
2023-03-06T13:11:58.197Z,3.01
2023-03-06T13:15:30.763Z,2.95
2023-03-06T13:19:02.599Z,2.99
2023-03-06T13:22:16.466Z,2.99
2023-03-06T13:25:36.882Z,3.23
2023-03-06T13:28:49.361Z,3.18
2023-03-06T13:32:17.962Z,3.00
2023-03-06T13:35:52.542Z,3.10
2023-03-06T13:39:05.823Z,3.04
2023-03-06T13:42:26.933Z,2.91
2023-03-06T13:45:35.671Z,3.36
2023-03-06T13:48:45.583Z,3.95
2023-03-06T13:52:10.296Z,3.87
2023-03-06T13:55:25.292Z,3.81
2023-03-06T13:58:45.997Z,3.89
2023-03-06T14:02:02.255Z,3.97
2023-03-06T14:05:14.261Z,4.10
2023-03-06T14:08:20.060Z,3.91
2023-03-06T14:11:23.085Z,3.44
2023-03-06T14:14:37.169Z,3.66
2023-03-06T14:17:50.268Z,3.66
2023-03-06T14:21:05.323Z,3.41
2023-03-06T14:24:17.580Z,3.53
2023-03-06T14:27:21.001Z,3.45
2023-03-06T14:30:26.345Z,3.78
2023-03-06T14:33:34.630Z,3.78
2023-03-06T14:36:45.980Z,3.77
2023-03-06T14:39:50.012Z,3.65
2023-03-06T14:43:12.458Z,3.77
2023-03-06T14:46:22.708Z,4.26
2023-03-06T14:49:27.287Z,4.09
2023-03-06T14:52:31.838Z,4.14
2023-03-06T14:55:36.754Z,4.10
2023-03-06T14:58:52.037Z,4.10
2023-03-06T15:02:00.346Z,3.95
2023-03-06T15:05:07.891Z,4.18
2023-03-06T15:08:20.439Z,4.04
2023-03-06T15:11:23.737Z,4.09
2023-03-06T15:14:37.536Z,4.23
2023-03-06T15:17:42.931Z,4.26
2023-03-06T15:20:51.396Z,4.51
2023-03-06T15:23:58.154Z,4.44
2023-03-06T15:27:04.108Z,4.22
2023-03-06T15:30:24.137Z,4.02
2023-03-06T15:33:27.708Z,3.91
2023-03-06T15:36:32.493Z,3.65
2023-03-06T15:39:39.744Z,3.72
2023-03-06T15:42:44.643Z,3.69
2023-03-06T15:45:48.068Z,3.46
2023-03-06T15:48:56.042Z,3.38
2023-03-06T15:51:59.044Z,3.15
2023-03-06T15:55:03.423Z,3.06
2023-03-06T15:58:06.645Z,3.03
2023-03-06T16:01:17.809Z,3.25
2023-03-06T16:04:21.564Z,3.21
2023-03-06T16:07:24.990Z,3.13
2023-03-06T16:10:32.414Z,3.02
2023-03-06T16:13:35.557Z,3.09
2023-03-06T16:16:39.695Z,2.88
2023-03-06T16:19:43.108Z,2.84
2023-03-06T16:22:47.689Z,2.76
2023-03-06T16:25:52.079Z,2.85
2023-03-06T16:28:55.520Z,2.92
2023-03-06T16:32:01.608Z,2.92
2023-03-06T16:35:05.136Z,2.84
2023-03-06T16:38:09.602Z,2.64
2023-03-06T16:41:14.257Z,2.76
2023-03-06T16:44:17.864Z,2.71
2023-03-06T16:47:20.915Z,2.73
2023-03-06T16:50:27.829Z,2.48
2023-03-06T16:53:31.200Z,2.38
2023-03-06T16:56:36.131Z,2.42
2023-03-06T16:59:39.625Z,2.41
2023-03-06T17:02:43.735Z,2.31
2023-03-06T17:05:46.826Z,2.22
2023-03-06T17:08:51.623Z,2.17
2023-03-06T17:11:55.936Z,1.97
2023-03-06T17:14:59.075Z,1.74
2023-03-06T17:18:02.192Z,1.73
2023-03-06T17:21:06.819Z,1.74
2023-03-06T17:24:10.280Z,1.78
2023-03-06T17:27:14.630Z,1.73
2023-03-06T17:30:17.788Z,1.69
2023-03-06T17:33:20.883Z,1.66
2023-03-06T17:36:24.293Z,1.52
2023-03-06T17:39:27.434Z,1.53
2023-03-06T17:42:31.808Z,1.50
2023-03-06T17:45:37.384Z,1.33
2023-03-06T17:48:40.902Z,1.33
2023-03-06T17:51:43.927Z,1.21
2023-03-06T17:54:46.967Z,1.16
2023-03-06T17:57:52.843Z,1.04
2023-03-06T18:00:56.157Z,0.88
2023-03-06T18:03:59.405Z,0.94
2023-03-06T18:07:02.473Z,0.97
2023-03-06T18:10:06.494Z,0.82
2023-03-06T18:13:13.811Z,0.90
2023-03-06T18:16:20.083Z,0.89
2023-03-06T18:19:23.084Z,0.88
2023-03-06T18:22:27.069Z,0.83
2023-03-06T18:25:30.836Z,0.64
2023-03-06T18:28:35.226Z,0.56
2023-03-06T18:31:40.387Z,0.42
2023-03-06T18:34:45.278Z,0.35
2023-03-06T18:37:48.389Z,0.33
2023-03-06T18:40:51.546Z,0.32
2023-03-06T18:43:58.355Z,0.22
2023-03-06T18:47:01.460Z,0.21
2023-03-06T18:50:05.147Z,0.11
2023-03-06T18:53:08.271Z,0.01
2023-03-06T18:56:17.304Z,0.03
2023-03-06T18:59:22.095Z,-0.05
2023-03-06T19:02:26.197Z,-0.05
2023-03-06T19:05:29.366Z,0.03
2023-03-06T19:08:33.369Z,-0.08
2023-03-06T19:11:36.448Z,-0.10
2023-03-06T19:14:40.777Z,-0.13
2023-03-06T19:17:44.046Z,-0.21
2023-03-06T19:20:47.179Z,-0.22
2023-03-06T19:23:50.869Z,-0.37
2023-03-06T19:26:54.360Z,-0.35
2023-03-06T19:29:58.815Z,-0.37
2023-03-06T19:33:01.961Z,-0.39
2023-03-06T19:36:06.554Z,-0.42
2023-03-06T19:39:09.707Z,-0.46
2023-03-06T19:42:13.921Z,-0.49
2023-03-06T19:45:19.448Z,-0.51
2023-03-06T19:48:24.344Z,-0.52
2023-03-06T19:51:28.851Z,-0.55
2023-03-06T19:54:32.714Z,-0.48
2023-03-06T19:57:36.140Z,-0.59
2023-03-06T20:00:41.448Z,-0.65
2023-03-06T20:03:45.191Z,-0.58
2023-03-06T20:06:51.660Z,-0.69
2023-03-06T20:09:57.085Z,-0.66
2023-03-06T20:13:00.110Z,-0.74
2023-03-06T20:16:06.018Z,-0.68
2023-03-06T20:19:09.053Z,-0.74
2023-03-06T20:22:12.726Z,-0.77
2023-03-06T20:25:15.788Z,-0.86
2023-03-06T20:28:18.863Z,-0.87
2023-03-06T20:31:25.626Z,-0.95
2023-03-06T20:34:28.768Z,-0.87
2023-03-06T20:37:31.796Z,-0.99
2023-03-06T20:40:38.537Z,-1.00
2023-03-06T20:43:42.020Z,-0.99
2023-03-06T20:46:46.639Z,-0.97
2023-03-06T20:49:49.737Z,-1.00
2023-03-06T20:52:55.314Z,-1.07
2023-03-06T20:55:58.639Z,-1.11
2023-03-06T20:59:02.348Z,-1.11
2023-03-06T21:02:06.645Z,-1.01
2023-03-06T21:05:10.851Z,-1.06
2023-03-06T21:08:14.079Z,-1.03
2023-03-06T21:11:17.738Z,-1.07
2023-03-06T21:14:20.735Z,-1.04
2023-03-06T21:17:25.493Z,-1.09
2023-03-06T21:20:28.608Z,-1.10
2023-03-06T21:23:31.649Z,-1.17
2023-03-06T21:26:35.190Z,-1.20
2023-03-06T21:29:38.183Z,-1.23
2023-03-06T21:32:43.115Z,-1.14
2023-03-06T21:35:47.191Z,-1.17
2023-03-06T21:38:51.804Z,-1.18
2023-03-06T21:41:54.874Z,-1.21
2023-03-06T21:44:57.908Z,-1.28
2023-03-06T21:48:02.848Z,-1.27
2023-03-06T21:51:12.056Z,-1.32
2023-03-06T21:54:15.132Z,-1.34
2023-03-06T21:57:18.243Z,-1.40
2023-03-06T22:00:23.633Z,-1.41
2023-03-06T22:03:30.060Z,-1.39
2023-03-06T22:06:33.205Z,-1.39
2023-03-06T22:09:37.360Z,-1.43
2023-03-06T22:12:41.287Z,-1.47
2023-03-06T22:15:52.498Z,-1.48
2023-03-06T22:18:57.127Z,-1.50
2023-03-06T22:22:00.184Z,-1.53
2023-03-06T22:25:04.865Z,-1.61
2023-03-06T22:28:08.179Z,-1.64
2023-03-06T22:31:14.795Z,-1.62
2023-03-06T22:34:19.543Z,-1.62
2023-03-06T22:37:22.597Z,-1.65
2023-03-06T22:40:26.027Z,-1.67
2023-03-06T22:43:29.204Z,-1.66
2023-03-06T22:46:33.574Z,-1.64
2023-03-06T22:49:38.770Z,-1.67
2023-03-06T22:52:41.802Z,-1.74
2023-03-06T22:55:45.004Z,-1.75
2023-03-06T22:58:48.957Z,-1.75
2023-03-06T23:01:52.546Z,-1.69
2023-03-06T23:04:56.835Z,-1.69
2023-03-06T23:08:00.150Z,-1.74
2023-03-06T23:11:04.098Z,-1.83
2023-03-06T23:14:26.175Z,-1.83
2023-03-06T23:17:48.163Z,-1.77
2023-03-06T23:21:13.974Z,-1.71
2023-03-06T23:24:36.764Z,-1.63
2023-03-06T23:27:40.946Z,-1.60
2023-03-06T23:30:44.387Z,-1.60
2023-03-06T23:33:48.023Z,-1.49
2023-03-06T23:36:52.441Z,-1.46
2023-03-06T23:39:56.790Z,-1.40
2023-03-06T23:43:00.425Z,-1.36
2023-03-06T23:46:04.377Z,-1.31
2023-03-06T23:49:08.060Z,-1.29
2023-03-06T23:52:13.025Z,-1.26
2023-03-06T23:55:16.474Z,-1.20
2023-03-06T23:58:20.549Z,-1.16
